createdAt,value
2023-01-29T00:00:09.205Z,1.57
2023-01-29T00:02:38.965Z,1.56
2023-01-29T00:05:25.476Z,1.54
2023-01-29T00:07:52.954Z,1.48
2023-01-29T00:10:19.589Z,1.40
2023-01-29T00:12:46.230Z,1.40
2023-01-29T00:15:12.892Z,1.42
2023-01-29T00:17:39.548Z,1.34
2023-01-29T00:20:06.599Z,1.34
2023-01-29T00:22:33.281Z,1.30
2023-01-29T00:24:59.946Z,1.27
2023-01-29T00:27:26.596Z,1.22
2023-01-29T00:29:53.236Z,1.19
2023-01-29T00:32:20.094Z,1.24
2023-01-29T00:34:46.815Z,1.27
2023-01-29T00:37:13.473Z,1.18
2023-01-29T00:39:47.960Z,1.23
2023-01-29T00:42:14.925Z,1.23
2023-01-29T00:44:41.602Z,1.18
2023-01-29T00:47:08.259Z,1.17
2023-01-29T00:49:34.918Z,1.07
2023-01-29T00:52:01.569Z,1.09
2023-01-29T00:54:28.194Z,1.08
2023-01-29T00:56:54.819Z,1.09
2023-01-29T00:59:21.454Z,1.04
2023-01-29T01:01:48.176Z,1.06
2023-01-29T01:04:14.882Z,1.01
2023-01-29T01:06:43.021Z,0.97
2023-01-29T01:09:09.917Z,1.02
2023-01-29T01:11:36.583Z,0.96
2023-01-29T01:14:03.228Z,0.98
2023-01-29T01:16:29.900Z,0.98
2023-01-29T01:18:56.665Z,0.97
2023-01-29T01:21:23.297Z,1.00
2023-01-29T01:23:49.937Z,1.01
2023-01-29T01:26:16.635Z,0.98
2023-01-29T01:28:43.270Z,0.98
2023-01-29T01:31:10.871Z,0.84
2023-01-29T01:33:37.610Z,0.85
2023-01-29T01:36:04.605Z,0.82
2023-01-29T01:38:31.264Z,0.91
2023-01-29T01:40:57.909Z,0.84
2023-01-29T01:43:24.590Z,0.79
2023-01-29T01:45:51.262Z,0.75
2023-01-29T01:48:25.027Z,0.68
2023-01-29T01:50:59.519Z,0.56
2023-01-29T01:53:29.123Z,0.54
2023-01-29T01:55:59.624Z,0.60
2023-01-29T01:58:30.941Z,0.52
2023-01-29T02:00:57.683Z,0.46
2023-01-29T02:03:24.471Z,0.43
2023-01-29T02:05:51.125Z,0.46
2023-01-29T02:08:20.488Z,0.53
2023-01-29T02:10:47.516Z,0.60
2023-01-29T02:13:14.536Z,0.54
2023-01-29T02:15:41.167Z,0.43
2023-01-29T02:18:08.297Z,0.39
2023-01-29T02:20:34.940Z,0.39
2023-01-29T02:23:21.121Z,0.37
2023-01-29T02:26:00.093Z,0.29
2023-01-29T02:28:29.665Z,0.30
2023-01-29T02:31:09.964Z,0.31
2023-01-29T02:34:01.626Z,0.36
2023-01-29T02:36:37.069Z,0.36
2023-01-29T02:39:13.249Z,0.39
2023-01-29T02:42:01.063Z,0.33
2023-01-29T02:44:37.211Z,0.26
2023-01-29T02:47:05.839Z,0.26
2023-01-29T02:49:59.885Z,0.17
2023-01-29T02:52:29.644Z,0.15
2023-01-29T02:55:06.811Z,0.19
2023-01-29T02:57:35.936Z,0.21
2023-01-29T03:00:09.938Z,0.21
2023-01-29T03:02:56.843Z,0.25
2023-01-29T03:05:37.064Z,0.27
2023-01-29T03:08:07.181Z,0.34
2023-01-29T03:10:40.421Z,0.30
2023-01-29T03:13:12.265Z,0.27
2023-01-29T03:15:43.418Z,0.18
2023-01-29T03:18:12.458Z,0.11
2023-01-29T03:20:47.857Z,0.11
2023-01-29T03:23:19.753Z,0.06
2023-01-29T03:25:46.418Z,0.05
2023-01-29T03:28:15.178Z,-0.08
2023-01-29T03:30:50.014Z,-0.08
2023-01-29T03:33:16.667Z,-0.07
2023-01-29T03:36:10.664Z,0.01
2023-01-29T03:38:37.317Z,0.10
2023-01-29T03:41:03.878Z,0.20
2023-01-29T03:43:36.339Z,0.18
2023-01-29T03:46:11.678Z,0.13
2023-01-29T03:48:51.587Z,0.14
2023-01-29T03:51:21.131Z,0.18
2023-01-29T03:53:49.131Z,0.18
2023-01-29T03:56:26.421Z,0.16
2023-01-29T03:58:59.159Z,-0.04
2023-01-29T04:01:29.188Z,-0.14
2023-01-29T04:03:58.897Z,-0.11
2023-01-29T04:06:27.411Z,-0.14
2023-01-29T04:08:59.265Z,-0.10
2023-01-29T04:11:25.913Z,-0.14
2023-01-29T04:13:52.560Z,-0.10
2023-01-29T04:16:33.401Z,-0.04
2023-01-29T04:19:00.139Z,-0.05
2023-01-29T04:21:26.971Z,0.06
2023-01-29T04:23:53.666Z,-0.02
2023-01-29T04:26:34.916Z,-0.02
2023-01-29T04:29:52.534Z,-0.06
2023-01-29T04:32:26.121Z,-0.04
2023-01-29T04:35:21.704Z,-0.05
2023-01-29T04:38:03.334Z,-0.05
2023-01-29T04:40:35.427Z,0.05
2023-01-29T04:43:09.706Z,0.07
2023-01-29T04:45:43.001Z,0.07
2023-01-29T04:48:26.257Z,0.05
2023-01-29T04:51:15.709Z,0.03
2023-01-29T04:53:55.815Z,0.06
2023-01-29T04:56:31.395Z,0.10
2023-01-29T04:59:02.211Z,0.14
2023-01-29T05:01:28.899Z,0.04
2023-01-29T05:03:55.569Z,0.04
2023-01-29T05:06:22.213Z,0.05
2023-01-29T05:08:48.847Z,0.02
2023-01-29T05:11:15.621Z,-0.03
2023-01-29T05:13:42.259Z,-0.09
2023-01-29T05:16:22.395Z,-0.18
2023-01-29T05:18:49.073Z,-0.31
2023-01-29T05:21:15.743Z,-0.35
2023-01-29T05:23:42.379Z,-0.43
2023-01-29T05:26:09.035Z,-0.42
2023-01-29T05:28:35.740Z,-0.50
2023-01-29T05:31:02.452Z,-0.56
2023-01-29T05:33:30.186Z,-0.55
2023-01-29T05:35:57.221Z,-0.55
2023-01-29T05:38:23.870Z,-0.60
2023-01-29T05:40:50.557Z,-0.58
2023-01-29T05:43:24.363Z,-0.63
2023-01-29T05:45:58.278Z,-0.58
2023-01-29T05:48:25.474Z,-0.58
2023-01-29T05:50:52.154Z,-0.53
2023-01-29T05:53:18.821Z,-0.52
2023-01-29T05:55:46.082Z,-0.52
2023-01-29T05:58:12.812Z,-0.53
2023-01-29T06:00:39.477Z,-0.34
2023-01-29T06:03:06.223Z,-0.32
2023-01-29T06:05:32.897Z,-0.41
2023-01-29T06:07:59.559Z,-0.43
2023-01-29T06:10:26.217Z,-0.40
2023-01-29T06:12:52.916Z,-0.36
2023-01-29T06:15:19.553Z,-0.37
2023-01-29T06:17:46.196Z,-0.32
2023-01-29T06:20:12.870Z,-0.30
2023-01-29T06:22:39.542Z,-0.34
2023-01-29T06:25:06.849Z,-0.28
2023-01-29T06:27:33.510Z,-0.29
2023-01-29T06:30:00.177Z,-0.31
2023-01-29T06:32:27.601Z,-0.30
2023-01-29T06:34:54.321Z,-0.28
2023-01-29T06:37:21.267Z,-0.25
2023-01-29T06:39:47.898Z,-0.28
2023-01-29T06:42:14.528Z,-0.25
2023-01-29T06:44:41.189Z,-0.28
2023-01-29T06:47:07.818Z,-0.21
2023-01-29T06:49:34.458Z,-0.19
2023-01-29T06:52:01.233Z,-0.23
2023-01-29T06:54:27.867Z,-0.25
2023-01-29T06:56:54.549Z,-0.19
2023-01-29T06:59:21.282Z,-0.23
2023-01-29T07:01:48.068Z,-0.06
2023-01-29T07:04:14.771Z,-0.05
2023-01-29T07:06:41.569Z,-0.27
2023-01-29T07:09:08.231Z,-0.31
2023-01-29T07:11:35.077Z,-0.40
2023-01-29T07:14:01.770Z,-0.51
2023-01-29T07:16:28.474Z,-0.53
2023-01-29T07:18:55.332Z,-0.40
2023-01-29T07:21:22.004Z,-0.35
2023-01-29T07:23:48.686Z,-0.27
2023-01-29T07:26:15.356Z,-0.24
2023-01-29T07:28:41.981Z,-0.24
2023-01-29T07:31:08.661Z,-0.18
2023-01-29T07:33:35.366Z,-0.17
2023-01-29T07:36:02.020Z,-0.09
2023-01-29T07:38:28.691Z,0.05
2023-01-29T07:40:55.362Z,0.11
2023-01-29T07:43:21.989Z,0.07
2023-01-29T07:45:48.656Z,-0.14
2023-01-29T07:48:15.371Z,-0.18
2023-01-29T07:50:42.077Z,-0.20
2023-01-29T07:53:12.425Z,-0.39
2023-01-29T07:55:39.081Z,-0.41
2023-01-29T07:58:05.772Z,-0.36
2023-01-29T08:00:32.515Z,-0.15
2023-01-29T08:03:06.403Z,0.08
2023-01-29T08:05:33.119Z,0.40
2023-01-29T08:08:06.551Z,0.58
2023-01-29T08:10:35.200Z,0.77
2023-01-29T08:13:01.917Z,1.29
2023-01-29T08:15:28.646Z,2.14
2023-01-29T08:20:41.950Z,4.35
2023-01-29T08:23:15.015Z,5.94
2023-01-29T08:25:41.729Z,7.14
2023-01-29T08:28:08.374Z,8.19
2023-01-29T08:30:35.236Z,9.21
2023-01-29T08:33:02.848Z,10.00
2023-01-29T08:35:29.507Z,10.73
2023-01-29T08:37:57.189Z,11.26
2023-01-29T08:40:23.832Z,11.81
2023-01-29T08:42:50.455Z,11.88
2023-01-29T08:45:17.112Z,12.60
2023-01-29T08:47:47.788Z,13.04
2023-01-29T08:50:15.674Z,13.52
2023-01-29T08:52:43.477Z,14.10
2023-01-29T08:55:10.366Z,14.71
2023-01-29T08:57:37.929Z,15.02
2023-01-29T09:00:08.375Z,15.59
2023-01-29T09:02:35.095Z,15.75
2023-01-29T09:05:01.905Z,15.52
2023-01-29T09:07:29.213Z,15.79
2023-01-29T09:09:55.914Z,16.25
2023-01-29T09:12:22.586Z,15.97
2023-01-29T09:14:49.276Z,15.83
2023-01-29T09:17:15.953Z,16.24
2023-01-29T09:19:42.831Z,16.53
2023-01-29T09:22:11.750Z,16.88
2023-01-29T09:24:38.625Z,17.09
2023-01-29T09:27:05.312Z,17.48
2023-01-29T09:29:33.539Z,17.91
2023-01-29T09:32:01.435Z,17.92
2023-01-29T09:34:28.071Z,17.35
2023-01-29T09:36:54.717Z,17.57
2023-01-29T09:39:21.386Z,17.77
2023-01-29T09:42:03.726Z,18.09
2023-01-29T09:45:07.509Z,18.12
2023-01-29T09:47:35.382Z,18.00
2023-01-29T09:50:13.520Z,17.43
2023-01-29T09:52:50.734Z,17.93
2023-01-29T09:55:27.128Z,17.68
2023-01-29T09:57:57.656Z,16.30
2023-01-29T10:00:33.022Z,15.11
2023-01-29T10:03:17.713Z,13.61
2023-01-29T10:06:00.146Z,12.75
2023-01-29T10:08:41.365Z,12.27
2023-01-29T10:11:29.714Z,11.87
2023-01-29T10:14:13.946Z,11.44
2023-01-29T10:16:59.071Z,11.04
2023-01-29T10:19:40.890Z,10.74
2023-01-29T10:22:29.299Z,10.48
2023-01-29T10:25:06.560Z,10.60
2023-01-29T10:27:34.608Z,10.34
2023-01-29T10:30:02.663Z,10.07
2023-01-29T10:32:29.387Z,9.96
2023-01-29T10:35:02.588Z,9.99
2023-01-29T10:37:40.449Z,9.82
2023-01-29T10:40:22.981Z,9.73
2023-01-29T10:42:53.140Z,9.53
2023-01-29T10:45:25.657Z,9.32
2023-01-29T10:48:05.215Z,9.11
2023-01-29T10:51:19.345Z,8.83
2023-01-29T10:53:54.408Z,8.73
2023-01-29T10:56:51.639Z,8.72
2023-01-29T10:59:27.098Z,8.19
2023-01-29T11:01:58.397Z,8.07
2023-01-29T11:04:26.637Z,7.93
2023-01-29T11:06:53.382Z,7.92
2023-01-29T11:09:32.861Z,7.75
2023-01-29T11:12:02.020Z,7.44
2023-01-29T11:14:35.170Z,7.01
2023-01-29T11:17:01.880Z,6.99
2023-01-29T11:19:41.953Z,7.02
2023-01-29T11:22:15.921Z,6.85
2023-01-29T11:24:42.936Z,6.62
2023-01-29T11:27:17.033Z,6.29
2023-01-29T11:29:46.941Z,6.36
2023-01-29T11:32:26.564Z,6.56
2023-01-29T11:35:06.389Z,6.89
2023-01-29T11:37:35.241Z,7.23
2023-01-29T11:40:02.011Z,7.35
2023-01-29T11:42:31.037Z,7.29
2023-01-29T11:44:57.730Z,7.43
2023-01-29T11:47:29.006Z,7.48
2023-01-29T11:50:00.418Z,7.43
2023-01-29T11:52:40.686Z,7.66
2023-01-29T11:55:11.895Z,7.67
2023-01-29T11:57:40.753Z,7.64
2023-01-29T12:00:29.967Z,7.63
2023-01-29T12:03:16.246Z,7.67
2023-01-29T12:05:53.548Z,7.46
2023-01-29T12:08:20.207Z,7.57
2023-01-29T12:10:46.867Z,7.61
2023-01-29T12:13:18.721Z,7.55
2023-01-29T12:15:45.534Z,7.60
2023-01-29T12:18:33.108Z,7.58
2023-01-29T12:21:04.163Z,7.54
2023-01-29T12:24:00.568Z,7.50
2023-01-29T12:26:30.043Z,7.40
2023-01-29T12:29:18.544Z,7.34
2023-01-29T12:32:17.524Z,7.40
2023-01-29T12:34:48.513Z,7.37
2023-01-29T12:37:21.970Z,7.43
2023-01-29T12:39:49.257Z,7.59
2023-01-29T12:42:20.692Z,7.48
2023-01-29T12:44:48.364Z,7.64
2023-01-29T12:47:34.164Z,7.56
2023-01-29T12:50:03.320Z,7.68
2023-01-29T12:52:56.432Z,7.70
2023-01-29T12:55:41.893Z,7.64
2023-01-29T12:58:22.376Z,7.77
2023-01-29T13:00:51.046Z,7.53
2023-01-29T13:03:32.653Z,7.53
2023-01-29T13:06:05.715Z,7.53
2023-01-29T13:08:35.864Z,7.49
2023-01-29T13:11:06.580Z,7.50
2023-01-29T13:13:35.663Z,7.57
2023-01-29T13:16:03.894Z,7.41
2023-01-29T13:18:56.169Z,7.37
2023-01-29T13:21:25.228Z,7.22
2023-01-29T13:23:53.649Z,7.32
2023-01-29T13:26:21.079Z,7.46
2023-01-29T13:28:47.799Z,7.41
2023-01-29T13:31:33.627Z,7.44
2023-01-29T13:34:16.369Z,7.43
2023-01-29T13:36:44.275Z,7.21
2023-01-29T13:39:24.369Z,7.14
2023-01-29T13:41:51.197Z,7.15
2023-01-29T13:44:33.644Z,7.22
2023-01-29T13:47:03.654Z,7.13
2023-01-29T13:49:41.024Z,7.10
2023-01-29T13:52:20.277Z,6.92
2023-01-29T13:54:54.042Z,7.09
2023-01-29T13:57:55.949Z,7.10
2023-01-29T14:00:22.633Z,7.07
2023-01-29T14:02:54.901Z,7.06
2023-01-29T14:05:30.687Z,6.91
2023-01-29T14:07:58.379Z,6.86
2023-01-29T14:10:25.721Z,6.80
2023-01-29T14:13:01.360Z,6.84
2023-01-29T14:15:29.368Z,6.66
2023-01-29T14:18:02.166Z,6.57
2023-01-29T14:20:45.696Z,6.45
2023-01-29T14:23:23.189Z,6.40
2023-01-29T14:25:49.863Z,6.34
2023-01-29T14:28:21.256Z,6.20
2023-01-29T14:30:48.423Z,6.15
2023-01-29T14:33:26.826Z,6.11
2023-01-29T14:35:53.529Z,6.08
2023-01-29T14:38:20.175Z,6.04
2023-01-29T14:40:46.863Z,5.93
2023-01-29T14:43:17.313Z,5.88
2023-01-29T14:45:43.936Z,5.86
2023-01-29T14:48:10.497Z,5.76
2023-01-29T14:50:37.027Z,5.74
2023-01-29T14:53:12.902Z,5.64
2023-01-29T14:55:43.763Z,5.67
2023-01-29T14:58:15.132Z,5.63
2023-01-29T15:00:43.707Z,5.60
2023-01-29T15:03:32.494Z,5.59
2023-01-29T15:05:59.176Z,5.52
2023-01-29T15:08:29.815Z,5.54
2023-01-29T15:10:57.688Z,5.43
2023-01-29T15:13:35.959Z,5.42
2023-01-29T15:16:16.351Z,5.30
2023-01-29T15:18:43.124Z,5.33
2023-01-29T15:21:14.246Z,5.29
2023-01-29T15:23:40.979Z,5.25
2023-01-29T15:26:11.857Z,5.27
2023-01-29T15:28:38.780Z,5.18
2023-01-29T15:31:07.477Z,5.14
2023-01-29T15:33:34.605Z,5.16
2023-01-29T15:36:07.301Z,5.12
2023-01-29T15:38:34.533Z,5.13
2023-01-29T15:41:02.616Z,5.12
2023-01-29T15:43:30.792Z,5.08
2023-01-29T15:45:59.448Z,5.09
2023-01-29T15:48:32.809Z,5.10
2023-01-29T15:50:59.782Z,5.02
2023-01-29T15:53:33.732Z,5.02
2023-01-29T15:56:00.381Z,5.04
2023-01-29T15:58:31.189Z,5.04
2023-01-29T16:00:58.059Z,5.01
2023-01-29T16:03:26.170Z,4.95
2023-01-29T16:05:53.320Z,4.98
2023-01-29T16:08:20.970Z,4.93
2023-01-29T16:10:48.145Z,4.96
2023-01-29T16:13:22.270Z,4.95
2023-01-29T16:15:58.603Z,4.97
2023-01-29T16:18:29.726Z,4.98
2023-01-29T16:20:56.502Z,4.96
2023-01-29T16:23:30.549Z,4.89
2023-01-29T16:26:02.003Z,4.87
2023-01-29T16:28:28.733Z,4.84
2023-01-29T16:30:57.186Z,4.77
2023-01-29T16:33:23.882Z,4.67
2023-01-29T16:35:51.382Z,4.69
2023-01-29T16:38:29.079Z,4.72
2023-01-29T16:41:07.420Z,4.67
2023-01-29T16:43:49.337Z,4.66
2023-01-29T16:46:20.436Z,4.68
2023-01-29T16:48:47.190Z,4.66
2023-01-29T16:51:17.651Z,4.67
2023-01-29T16:53:59.487Z,4.64
2023-01-29T16:56:27.739Z,4.63
2023-01-29T16:58:54.432Z,4.66
2023-01-29T17:01:22.716Z,4.67
2023-01-29T17:04:00.659Z,4.68
2023-01-29T17:06:27.499Z,4.68
2023-01-29T17:08:54.981Z,4.67
2023-01-29T17:11:46.241Z,4.64
2023-01-29T17:14:12.876Z,4.67
2023-01-29T17:16:56.458Z,4.66
2023-01-29T17:19:23.139Z,4.69
2023-01-29T17:21:49.807Z,4.76
2023-01-29T17:24:16.490Z,4.86
2023-01-29T17:26:43.228Z,4.84
2023-01-29T17:29:13.490Z,4.81
2023-01-29T17:31:40.250Z,4.81
2023-01-29T17:34:11.043Z,4.71
2023-01-29T17:36:37.710Z,4.65
2023-01-29T17:39:18.495Z,4.61
2023-01-29T17:41:47.631Z,4.60
2023-01-29T17:44:14.288Z,4.61
2023-01-29T17:46:40.924Z,4.61
2023-01-29T17:49:27.289Z,4.62
2023-01-29T17:51:54.403Z,4.62
2023-01-29T17:54:21.079Z,4.65
2023-01-29T17:56:47.934Z,4.64
2023-01-29T17:59:19.073Z,4.59
2023-01-29T18:01:46.420Z,4.55
2023-01-29T18:04:13.106Z,4.57
2023-01-29T18:06:40.227Z,4.53
2023-01-29T18:09:07.005Z,4.52
2023-01-29T18:11:33.657Z,4.54
2023-01-29T18:14:01.295Z,4.53
2023-01-29T18:16:40.959Z,4.53
2023-01-29T18:19:16.716Z,4.51
2023-01-29T18:21:43.379Z,4.51
2023-01-29T18:24:10.059Z,4.51
2023-01-29T18:26:36.728Z,4.50
2023-01-29T18:29:04.161Z,4.55
2023-01-29T18:31:31.036Z,4.54
2023-01-29T18:33:57.804Z,4.52
2023-01-29T18:36:24.444Z,4.52
2023-01-29T18:38:51.071Z,4.53
2023-01-29T18:41:17.715Z,4.48
2023-01-29T18:43:44.410Z,4.48
2023-01-29T18:46:11.137Z,4.46
2023-01-29T18:48:37.826Z,4.49
2023-01-29T18:51:04.630Z,4.39
2023-01-29T18:53:31.287Z,4.20
2023-01-29T18:55:58.718Z,4.10
2023-01-29T18:58:33.587Z,3.91
2023-01-29T19:01:03.661Z,3.81
2023-01-29T19:03:30.328Z,3.81
2023-01-29T19:06:01.039Z,3.65
2023-01-29T19:08:27.898Z,3.67
2023-01-29T19:10:54.536Z,3.66
2023-01-29T19:13:21.203Z,3.70
2023-01-29T19:15:49.284Z,3.72
2023-01-29T19:18:15.930Z,3.60
2023-01-29T19:20:42.579Z,3.60
2023-01-29T19:23:09.319Z,3.49
2023-01-29T19:25:39.414Z,3.61
2023-01-29T19:28:06.254Z,3.67
2023-01-29T19:30:32.984Z,3.42
2023-01-29T19:32:59.723Z,3.20
2023-01-29T19:35:26.382Z,3.15
2023-01-29T19:37:53.049Z,3.16
2023-01-29T19:40:19.859Z,3.19
2023-01-29T19:42:46.889Z,3.22
2023-01-29T19:45:13.719Z,3.28
2023-01-29T19:47:43.377Z,3.33
2023-01-29T19:50:10.742Z,3.33
2023-01-29T19:52:52.803Z,3.38
2023-01-29T19:55:20.299Z,3.35
2023-01-29T19:57:47.172Z,3.40
2023-01-29T20:00:14.317Z,3.34
2023-01-29T20:02:41.338Z,3.36
2023-01-29T20:05:08.150Z,3.36
2023-01-29T20:07:34.840Z,3.39
2023-01-29T20:10:01.495Z,3.37
2023-01-29T20:12:28.259Z,3.23
2023-01-29T20:14:54.962Z,3.24
2023-01-29T20:17:21.591Z,3.29
2023-01-29T20:19:48.246Z,3.29
2023-01-29T20:22:14.887Z,3.27
2023-01-29T20:24:41.603Z,3.37
2023-01-29T20:27:11.078Z,3.32
2023-01-29T20:29:38.348Z,3.25
2023-01-29T20:32:05.759Z,3.19
2023-01-29T20:34:32.438Z,3.15
2023-01-29T20:36:59.118Z,3.11
2023-01-29T20:39:25.839Z,3.10
2023-01-29T20:41:52.481Z,3.02
2023-01-29T20:44:19.145Z,2.99
2023-01-29T20:46:46.206Z,2.99
2023-01-29T20:49:12.848Z,2.99
2023-01-29T20:51:39.566Z,2.95
2023-01-29T20:54:06.292Z,2.95
2023-01-29T20:56:37.601Z,2.95
2023-01-29T20:59:06.632Z,2.95
2023-01-29T21:01:33.369Z,2.92
2023-01-29T21:04:00.053Z,2.89
2023-01-29T21:06:26.687Z,2.86
2023-01-29T21:08:53.313Z,2.85
2023-01-29T21:11:20.000Z,2.81
2023-01-29T21:13:46.661Z,2.73
2023-01-29T21:16:13.387Z,2.66
2023-01-29T21:18:40.087Z,2.67
2023-01-29T21:21:06.728Z,2.67
2023-01-29T21:23:33.375Z,2.71
2023-01-29T21:26:06.397Z,2.64
2023-01-29T21:28:33.091Z,2.58
2023-01-29T21:31:06.917Z,2.61
2023-01-29T21:33:33.555Z,2.59
2023-01-29T21:36:00.556Z,2.55
2023-01-29T21:38:27.352Z,2.52
2023-01-29T21:40:59.065Z,2.47
2023-01-29T21:43:25.697Z,2.41
2023-01-29T21:45:56.511Z,2.39
2023-01-29T21:48:23.202Z,2.35
2023-01-29T21:50:50.066Z,2.30
2023-01-29T21:53:17.043Z,2.30
2023-01-29T21:55:43.858Z,2.34
2023-01-29T21:58:10.993Z,2.33
2023-01-29T22:00:38.520Z,2.28
2023-01-29T22:03:05.277Z,2.31
2023-01-29T22:05:32.245Z,2.22
2023-01-29T22:07:58.998Z,2.28
2023-01-29T22:10:25.701Z,2.30
2023-01-29T22:12:52.486Z,2.33
2023-01-29T22:15:19.127Z,2.30
2023-01-29T22:17:45.816Z,2.42
2023-01-29T22:20:13.119Z,2.43
2023-01-29T22:22:39.785Z,2.54
2023-01-29T22:25:06.609Z,2.53
2023-01-29T22:27:33.387Z,2.58
2023-01-29T22:30:00.027Z,2.37
2023-01-29T22:32:26.718Z,2.37
2023-01-29T22:34:53.392Z,2.24
2023-01-29T22:37:20.200Z,2.07
2023-01-29T22:39:46.965Z,1.94
2023-01-29T22:42:13.622Z,1.74
2023-01-29T22:44:40.602Z,1.68
2023-01-29T22:47:07.258Z,1.53
2023-01-29T22:49:33.912Z,1.41
2023-01-29T22:52:00.546Z,1.24
2023-01-29T22:54:27.231Z,1.21
2023-01-29T22:56:53.877Z,1.21
2023-01-29T22:59:20.520Z,1.20
2023-01-29T23:01:47.215Z,1.10
2023-01-29T23:04:13.875Z,0.84
2023-01-29T23:06:40.538Z,0.97
2023-01-29T23:09:07.309Z,1.03
2023-01-29T23:11:33.940Z,0.95
2023-01-29T23:14:00.611Z,1.06
2023-01-29T23:16:28.180Z,0.96
2023-01-29T23:18:55.096Z,1.06
2023-01-29T23:21:22.398Z,1.21
2023-01-29T23:23:49.199Z,1.24
2023-01-29T23:26:15.885Z,1.27
2023-01-29T23:28:42.913Z,1.33
2023-01-29T23:31:09.615Z,1.35
2023-01-29T23:33:36.304Z,1.40
2023-01-29T23:36:02.950Z,1.37
2023-01-29T23:38:29.577Z,1.34
2023-01-29T23:40:56.227Z,1.37
2023-01-29T23:43:22.873Z,1.29
2023-01-29T23:45:49.509Z,1.31
2023-01-29T23:48:16.151Z,1.28
2023-01-29T23:50:42.817Z,1.38
2023-01-29T23:53:09.455Z,1.33
2023-01-29T23:55:36.386Z,1.34
2023-01-29T23:58:03.328Z,1.30
